createdAt,value
2017-12-25T00:00:06.750Z,8.66
2017-12-25T00:02:35.969Z,8.68
2017-12-25T00:05:12.538Z,8.66
2017-12-25T00:07:42.131Z,8.68
2017-12-25T00:10:11.344Z,8.66
2017-12-25T00:12:40.585Z,8.61
2017-12-25T00:15:10.128Z,8.67
2017-12-25T00:17:39.397Z,8.68
2017-12-25T00:20:08.938Z,8.65
2017-12-25T00:22:38.499Z,8.62
2017-12-25T00:25:07.747Z,8.65
2017-12-25T00:27:37.114Z,8.58
2017-12-25T00:30:07.021Z,8.64
2017-12-25T00:32:36.273Z,8.65
2017-12-25T00:35:05.963Z,8.64
2017-12-25T00:37:35.535Z,8.68
2017-12-25T00:40:06.521Z,8.70
2017-12-25T00:42:35.753Z,8.72
2017-12-25T00:45:06.631Z,8.79
2017-12-25T00:47:36.266Z,8.78
2017-12-25T00:50:07.861Z,8.86
2017-12-25T00:52:37.784Z,8.81
2017-12-25T00:55:07.530Z,8.81
2017-12-25T00:57:36.749Z,8.80
2017-12-25T01:00:05.853Z,8.81
2017-12-25T01:02:35.071Z,8.76
2017-12-25T01:05:05.277Z,8.72
2017-12-25T01:07:34.868Z,8.74
2017-12-25T01:10:06.092Z,8.75
2017-12-25T01:12:35.427Z,8.76
2017-12-25T01:15:06.090Z,8.80
2017-12-25T01:17:35.358Z,8.77
2017-12-25T01:20:06.208Z,8.76
2017-12-25T01:22:35.875Z,8.80
2017-12-25T01:25:06.045Z,8.76
2017-12-25T01:27:35.566Z,8.78
2017-12-25T01:30:06.437Z,8.79
2017-12-25T01:32:35.651Z,8.71
2017-12-25T01:35:06.402Z,8.71
2017-12-25T01:37:35.942Z,8.69
2017-12-25T01:40:06.235Z,8.74
2017-12-25T01:42:35.440Z,8.65
2017-12-25T01:45:05.152Z,8.64
2017-12-25T01:47:34.367Z,8.59
2017-12-25T01:50:05.666Z,8.56
2017-12-25T01:52:35.393Z,8.63
2017-12-25T01:55:06.537Z,8.56
2017-12-25T01:57:36.746Z,8.60
2017-12-25T02:00:06.924Z,8.55
2017-12-25T02:02:36.594Z,8.41
2017-12-25T02:05:06.277Z,8.45
2017-12-25T02:08:12.123Z,8.45
2017-12-25T02:10:41.337Z,8.42
2017-12-25T02:13:10.861Z,8.38
2017-12-25T02:15:40.077Z,8.40
2017-12-25T02:18:09.305Z,8.48
2017-12-25T02:20:38.858Z,8.39
2017-12-25T02:23:08.093Z,8.35
2017-12-25T02:25:37.327Z,8.36
2017-12-25T02:28:06.896Z,8.39
2017-12-25T02:30:36.165Z,8.36
2017-12-25T02:33:05.450Z,8.39
2017-12-25T02:35:35.995Z,8.36
2017-12-25T02:38:06.203Z,8.34
2017-12-25T02:40:35.435Z,8.34
2017-12-25T02:43:05.235Z,8.39
2017-12-25T02:45:34.474Z,8.35
2017-12-25T02:48:04.331Z,8.30
2017-12-25T02:50:33.838Z,8.32
2017-12-25T02:53:03.650Z,8.33
2017-12-25T02:55:32.860Z,8.35
2017-12-25T02:58:03.974Z,8.34
2017-12-25T03:00:33.257Z,8.39
2017-12-25T03:03:03.033Z,8.36
2017-12-25T03:05:32.601Z,8.35
2017-12-25T03:08:01.832Z,8.34
2017-12-25T03:10:31.029Z,8.39
2017-12-25T03:13:01.195Z,8.42
2017-12-25T03:15:30.721Z,8.41
2017-12-25T03:18:00.514Z,8.34
2017-12-25T03:20:30.018Z,8.34
2017-12-25T03:22:59.326Z,8.34
2017-12-25T03:25:28.532Z,8.34
2017-12-25T03:27:58.102Z,8.30
2017-12-25T03:30:27.340Z,8.29
2017-12-25T03:32:56.775Z,8.25
2017-12-25T03:35:25.991Z,8.24
2017-12-25T03:37:55.225Z,8.16
2017-12-25T03:40:24.748Z,8.15
2017-12-25T03:42:54.000Z,8.20
2017-12-25T03:45:23.462Z,8.13
2017-12-25T03:47:53.885Z,8.15
2017-12-25T03:50:23.112Z,8.06
2017-12-25T03:52:52.635Z,8.07
2017-12-25T03:55:21.866Z,8.12
2017-12-25T03:57:51.123Z,8.13
2017-12-25T04:00:21.351Z,8.18
2017-12-25T04:02:51.161Z,8.26
2017-12-25T04:05:20.389Z,8.17
2017-12-25T04:07:49.903Z,8.13
2017-12-25T04:10:19.235Z,8.12
2017-12-25T04:12:48.480Z,8.11
2017-12-25T04:15:17.771Z,8.11
2017-12-25T04:17:46.984Z,8.05
2017-12-25T04:20:16.494Z,8.11
2017-12-25T04:22:45.762Z,8.07
2017-12-25T04:25:15.155Z,7.99
2017-12-25T04:27:44.686Z,7.99
2017-12-25T04:30:14.248Z,8.01
2017-12-25T04:32:43.497Z,8.03
2017-12-25T04:35:12.821Z,8.07
2017-12-25T04:37:42.049Z,8.09
2017-12-25T04:40:11.538Z,8.12
2017-12-25T04:42:40.776Z,8.10
2017-12-25T04:45:10.052Z,8.10
2017-12-25T04:47:39.559Z,8.05
2017-12-25T04:50:08.826Z,8.11
2017-12-25T04:52:38.046Z,8.06
2017-12-25T04:55:07.239Z,8.01
2017-12-25T04:57:36.465Z,7.99
2017-12-25T05:00:07.049Z,7.98
2017-12-25T05:02:36.759Z,7.94
2017-12-25T05:05:06.354Z,7.96
2017-12-25T05:07:36.160Z,7.95
2017-12-25T05:10:06.053Z,7.97
2017-12-25T05:12:35.287Z,8.02
2017-12-25T05:15:04.935Z,7.99
2017-12-25T05:17:34.150Z,7.94
2017-12-25T05:20:05.869Z,7.91
2017-12-25T05:22:35.117Z,7.86
2017-12-25T05:25:04.509Z,7.88
2017-12-25T05:27:34.475Z,7.81
2017-12-25T05:30:04.614Z,7.79
2017-12-25T05:32:33.842Z,7.77
2017-12-25T05:35:03.631Z,7.73
2017-12-25T05:37:32.856Z,7.68
2017-12-25T05:40:03.060Z,7.71
2017-12-25T05:42:32.614Z,7.68
2017-12-25T05:45:02.323Z,7.72
2017-12-25T05:47:31.795Z,7.70
2017-12-25T05:50:01.098Z,7.71
2017-12-25T05:52:30.378Z,7.68
2017-12-25T05:55:00.096Z,7.60
2017-12-25T05:57:29.299Z,7.62
2017-12-25T05:59:58.600Z,7.54
2017-12-25T06:02:28.102Z,7.60
2017-12-25T06:04:57.404Z,7.55
2017-12-25T06:07:26.636Z,7.43
2017-12-25T06:09:56.099Z,7.43
2017-12-25T06:12:25.695Z,7.49
2017-12-25T06:14:54.925Z,7.45
2017-12-25T06:17:25.419Z,7.40
2017-12-25T06:19:54.927Z,7.33
2017-12-25T06:22:24.487Z,7.27
2017-12-25T06:24:54.018Z,7.33
2017-12-25T06:27:23.248Z,7.31
2017-12-25T06:29:52.517Z,7.29
2017-12-25T06:32:22.087Z,7.27
2017-12-25T06:34:51.342Z,7.26
2017-12-25T06:37:20.863Z,7.25
2017-12-25T06:39:50.436Z,7.28
2017-12-25T06:42:19.656Z,7.28
2017-12-25T06:44:48.925Z,7.28
2017-12-25T06:47:18.487Z,7.30
2017-12-25T06:49:47.734Z,7.28
2017-12-25T06:52:17.042Z,7.31
2017-12-25T06:54:46.609Z,7.26
2017-12-25T06:57:16.111Z,7.26
2017-12-25T06:59:45.395Z,7.27
2017-12-25T07:02:15.066Z,7.24
2017-12-25T07:04:44.283Z,7.26
2017-12-25T07:07:13.546Z,7.27
2017-12-25T07:09:43.066Z,7.26
2017-12-25T07:12:12.319Z,7.25
2017-12-25T07:14:41.614Z,7.22
2017-12-25T07:17:11.229Z,7.21
2017-12-25T07:19:40.490Z,7.20
2017-12-25T07:22:09.985Z,7.18
2017-12-25T07:24:39.549Z,7.24
2017-12-25T07:27:08.785Z,7.18
2017-12-25T07:29:38.741Z,7.19
2017-12-25T07:32:08.247Z,7.16
2017-12-25T07:34:37.774Z,7.15
2017-12-25T07:37:07.204Z,7.19
2017-12-25T07:39:37.167Z,7.12
2017-12-25T07:42:10.464Z,7.07
2017-12-25T07:44:41.993Z,7.08
2017-12-25T07:47:11.723Z,7.08
2017-12-25T07:49:40.979Z,7.11
2017-12-25T07:52:10.449Z,7.20
2017-12-25T07:54:40.428Z,7.26
2017-12-25T07:57:09.906Z,7.34
2017-12-25T07:59:39.147Z,7.29
2017-12-25T08:02:08.656Z,7.34
2017-12-25T08:04:37.879Z,7.32
2017-12-25T08:07:07.101Z,7.30
2017-12-25T08:09:36.925Z,7.28
2017-12-25T08:12:07.234Z,7.40
2017-12-25T08:14:36.437Z,7.37
2017-12-25T08:17:05.733Z,7.37
2017-12-25T08:19:34.962Z,7.42
2017-12-25T08:22:05.417Z,7.48
2017-12-25T08:24:34.674Z,7.56
2017-12-25T08:27:04.449Z,7.61
2017-12-25T08:29:36.005Z,7.54
2017-12-25T08:32:06.863Z,7.52
2017-12-25T08:34:36.838Z,7.53
2017-12-25T08:37:06.081Z,7.51
2017-12-25T08:39:35.302Z,7.49
2017-12-25T08:42:05.981Z,7.54
2017-12-25T08:44:35.180Z,7.43
2017-12-25T08:47:04.757Z,7.49
2017-12-25T08:49:34.311Z,7.45
2017-12-25T08:52:04.642Z,7.52
2017-12-25T08:54:33.841Z,7.44
2017-12-25T08:57:03.600Z,7.43
2017-12-25T08:59:32.955Z,7.51
2017-12-25T09:02:03.084Z,7.57
2017-12-25T09:04:32.286Z,7.64
2017-12-25T09:07:03.082Z,7.56
2017-12-25T09:09:32.774Z,7.56
2017-12-25T09:12:04.096Z,7.63
2017-12-25T09:14:33.572Z,7.64
2017-12-25T09:17:04.197Z,7.67
2017-12-25T09:19:33.718Z,7.61
2017-12-25T09:22:05.066Z,7.61
2017-12-25T09:24:34.345Z,7.62
2017-12-25T09:27:04.437Z,7.70
2017-12-25T09:29:33.981Z,7.72
2017-12-25T09:32:05.466Z,7.71
2017-12-25T09:34:34.968Z,7.65
2017-12-25T09:37:05.295Z,7.67
2017-12-25T09:39:34.517Z,7.54
2017-12-25T09:42:05.054Z,7.55
2017-12-25T09:44:34.248Z,7.55
2017-12-25T09:47:04.318Z,7.61
2017-12-25T09:49:33.826Z,7.64
2017-12-25T09:52:04.372Z,7.60
2017-12-25T09:54:33.891Z,7.62
2017-12-25T09:57:04.072Z,7.57
2017-12-25T09:59:33.400Z,7.68
2017-12-25T10:02:04.430Z,7.65
2017-12-25T10:04:33.698Z,7.68
2017-12-25T10:07:03.487Z,7.65
2017-12-25T10:09:32.703Z,7.50
2017-12-25T10:12:03.150Z,7.50
2017-12-25T10:14:33.256Z,7.48
2017-12-25T10:17:03.980Z,7.59
2017-12-25T10:19:33.317Z,7.55
2017-12-25T10:22:03.926Z,7.55
2017-12-25T10:24:33.498Z,7.53
2017-12-25T10:27:03.992Z,7.56
2017-12-25T10:29:33.506Z,7.52
2017-12-25T10:32:03.983Z,7.46
2017-12-25T10:34:33.236Z,7.39
2017-12-25T10:37:03.123Z,7.43
2017-12-25T10:39:32.397Z,7.38
2017-12-25T10:42:03.113Z,7.28
2017-12-25T10:44:32.431Z,7.24
2017-12-25T10:47:06.539Z,7.25
2017-12-25T10:49:36.060Z,7.35
2017-12-25T10:52:06.405Z,7.37
2017-12-25T10:54:35.964Z,7.39
2017-12-25T10:57:06.180Z,7.38
2017-12-25T10:59:35.445Z,7.43
2017-12-25T11:02:06.613Z,7.39
2017-12-25T11:04:35.921Z,7.44
2017-12-25T11:07:05.498Z,7.44
2017-12-25T11:09:35.079Z,7.42
2017-12-25T11:12:06.161Z,7.50
2017-12-25T11:14:35.418Z,7.56
2017-12-25T11:17:06.311Z,7.61
2017-12-25T11:19:35.596Z,7.64
2017-12-25T11:22:06.191Z,7.66
2017-12-25T11:24:35.463Z,7.70
2017-12-25T11:27:06.834Z,7.78
2017-12-25T11:29:36.732Z,7.66
2017-12-25T11:32:06.156Z,7.62
2017-12-25T11:34:35.512Z,7.39
2017-12-25T11:37:05.508Z,7.47
2017-12-25T11:39:34.762Z,7.49
2017-12-25T11:42:05.790Z,7.37
2017-12-25T11:44:35.167Z,7.33
2017-12-25T11:47:06.242Z,7.35
2017-12-25T11:49:35.992Z,7.44
2017-12-25T11:52:06.367Z,7.44
2017-12-25T11:54:35.636Z,7.47
2017-12-25T11:57:05.742Z,7.43
2017-12-25T11:59:35.028Z,7.41
2017-12-25T12:02:06.143Z,7.43
2017-12-25T12:04:35.714Z,7.40
2017-12-25T12:07:06.573Z,7.36
2017-12-25T12:09:37.155Z,7.38
2017-12-25T12:12:07.186Z,7.40
2017-12-25T12:14:36.496Z,7.52
2017-12-25T12:17:06.202Z,7.58
2017-12-25T12:19:35.505Z,7.63
2017-12-25T12:22:06.471Z,7.59
2017-12-25T12:24:35.737Z,7.50
2017-12-25T12:27:05.684Z,7.45
2017-12-25T12:29:35.320Z,7.43
2017-12-25T12:32:06.125Z,7.46
2017-12-25T12:34:35.485Z,7.46
2017-12-25T12:37:06.128Z,7.54
2017-12-25T12:39:36.598Z,7.44
2017-12-25T12:42:06.320Z,7.43
2017-12-25T12:44:35.610Z,7.51
2017-12-25T12:47:05.590Z,7.62
2017-12-25T12:49:35.134Z,7.58
2017-12-25T12:52:05.489Z,7.63
2017-12-25T12:54:35.643Z,7.63
2017-12-25T12:57:05.898Z,7.64
2017-12-25T12:59:35.285Z,7.51
2017-12-25T13:02:06.269Z,7.53
2017-12-25T13:04:35.848Z,7.53
2017-12-25T13:07:05.692Z,7.51
2017-12-25T13:09:35.137Z,7.47
2017-12-25T13:12:05.826Z,7.36
2017-12-25T13:14:35.066Z,7.43
2017-12-25T13:17:06.346Z,7.49
2017-12-25T13:19:36.280Z,7.35
2017-12-25T13:22:07.115Z,7.32
2017-12-25T13:24:36.364Z,7.37
2017-12-25T13:27:06.232Z,7.34
2017-12-25T13:29:35.522Z,7.35
2017-12-25T13:32:07.716Z,7.28
2017-12-25T13:34:39.433Z,7.35
2017-12-25T13:37:24.143Z,7.35
2017-12-25T13:39:53.961Z,7.28
2017-12-25T13:45:06.091Z,7.14
2017-12-25T13:47:35.519Z,7.15
2017-12-25T13:50:05.780Z,7.07
2017-12-25T13:52:37.787Z,7.08
2017-12-25T13:55:07.050Z,7.02
2017-12-25T13:57:36.866Z,6.98
2017-12-25T14:00:09.108Z,6.97
2017-12-25T14:02:38.586Z,6.97
2017-12-25T14:05:08.146Z,6.97
2017-12-25T14:07:37.949Z,7.02
2017-12-25T14:10:07.299Z,6.94
2017-12-25T14:12:36.872Z,6.96
2017-12-25T14:15:06.270Z,7.03
2017-12-25T14:17:35.609Z,7.10
2017-12-25T14:20:07.001Z,7.15
2017-12-25T14:22:36.268Z,7.16
2017-12-25T14:25:06.900Z,7.13
2017-12-25T14:27:37.262Z,7.19
2017-12-25T14:30:08.301Z,7.20
2017-12-25T14:32:37.905Z,7.31
2017-12-25T14:35:07.551Z,7.29
2017-12-25T14:37:36.822Z,7.22
2017-12-25T14:40:06.647Z,7.24
2017-12-25T14:42:36.498Z,7.22
2017-12-25T14:45:06.000Z,7.28
2017-12-25T14:47:36.223Z,7.32
2017-12-25T14:50:06.400Z,7.37
2017-12-25T14:52:35.751Z,7.45
2017-12-25T14:55:06.680Z,7.45
2017-12-25T14:57:36.000Z,7.58
2017-12-25T15:00:06.647Z,7.68
2017-12-25T15:02:35.967Z,7.64
2017-12-25T15:05:05.872Z,7.56
2017-12-25T15:07:35.142Z,7.37
2017-12-25T15:10:06.811Z,7.08
2017-12-25T15:12:36.419Z,7.05
2017-12-25T15:15:06.040Z,6.96
2017-12-25T15:17:35.321Z,6.78
2017-12-25T15:20:07.179Z,6.73
2017-12-25T15:22:37.535Z,6.68
2017-12-25T15:25:07.155Z,6.59
2017-12-25T15:27:36.399Z,6.50
2017-12-25T15:30:06.111Z,6.46
2017-12-25T15:32:36.682Z,6.43
2017-12-25T15:35:07.830Z,6.37
2017-12-25T15:37:37.315Z,6.37
2017-12-25T15:40:06.882Z,6.34
2017-12-25T15:42:36.423Z,6.30
2017-12-25T15:45:06.579Z,6.25
2017-12-25T15:47:36.170Z,6.24
2017-12-25T15:50:06.961Z,6.19
2017-12-25T15:52:36.506Z,6.13
2017-12-25T15:55:06.506Z,6.10
2017-12-25T15:57:36.061Z,6.05
2017-12-25T16:00:06.389Z,6.02
2017-12-25T16:02:36.019Z,5.96
2017-12-25T16:05:06.652Z,5.90
2017-12-25T16:07:35.886Z,5.88
2017-12-25T16:10:06.802Z,5.86
2017-12-25T16:12:36.094Z,5.78
2017-12-25T16:15:06.978Z,5.71
2017-12-25T16:17:36.624Z,5.73
2017-12-25T16:20:06.831Z,5.71
2017-12-25T16:22:36.260Z,5.66
2017-12-25T16:25:06.764Z,5.65
2017-12-25T16:27:36.304Z,5.63
2017-12-25T16:30:06.660Z,5.61
2017-12-25T16:32:36.488Z,5.63
2017-12-25T16:35:06.580Z,5.58
2017-12-25T16:37:36.664Z,5.57
2017-12-25T16:40:06.871Z,5.55
2017-12-25T16:42:36.414Z,5.47
2017-12-25T16:45:07.216Z,5.41
2017-12-25T16:47:37.439Z,5.43
2017-12-25T16:50:06.869Z,5.40
2017-12-25T16:52:37.518Z,5.39
2017-12-25T16:55:07.948Z,5.40
2017-12-25T16:57:38.666Z,5.37
2017-12-25T17:00:10.245Z,5.30
2017-12-25T17:02:39.599Z,5.27
2017-12-25T17:05:09.043Z,5.26
2017-12-25T17:07:38.606Z,5.26
2017-12-25T17:10:08.127Z,5.24
2017-12-25T17:12:37.434Z,5.23
2017-12-25T17:15:07.791Z,5.19
2017-12-25T17:17:37.502Z,5.19
2017-12-25T17:20:07.146Z,5.13
2017-12-25T17:22:36.815Z,5.13
2017-12-25T17:25:06.122Z,5.13
2017-12-25T17:27:35.520Z,5.10
2017-12-25T17:30:11.491Z,5.11
2017-12-25T17:32:40.764Z,5.09
2017-12-25T17:35:10.142Z,5.10
2017-12-25T17:37:39.772Z,5.09
2017-12-25T17:40:09.146Z,5.01
2017-12-25T17:42:38.545Z,5.01
2017-12-25T17:45:08.464Z,5.01
2017-12-25T17:47:37.706Z,5.00
2017-12-25T17:50:07.057Z,5.01
2017-12-25T17:52:36.644Z,4.99
2017-12-25T17:55:05.980Z,5.00
2017-12-25T17:57:35.447Z,4.98
2017-12-25T18:00:06.753Z,5.02
2017-12-25T18:02:36.012Z,5.02
2017-12-25T18:05:07.738Z,5.03
2017-12-25T18:07:37.492Z,5.02
2017-12-25T18:10:08.737Z,4.94
2017-12-25T18:12:41.012Z,4.92
2017-12-25T18:15:11.318Z,4.94
2017-12-25T18:17:42.590Z,4.92
2017-12-25T18:20:12.336Z,4.89
2017-12-25T18:22:41.940Z,4.81
2017-12-25T18:25:11.278Z,4.81
2017-12-25T18:27:41.922Z,4.83
2017-12-25T18:30:11.441Z,4.83
2017-12-25T18:32:41.701Z,4.75
2017-12-25T18:35:11.299Z,4.75
2017-12-25T18:37:41.332Z,4.75
2017-12-25T18:40:10.599Z,4.75
2017-12-25T18:42:39.881Z,4.71
2017-12-25T18:45:09.219Z,4.74
2017-12-25T18:47:38.598Z,4.73
2017-12-25T18:50:08.232Z,4.67
2017-12-25T18:52:37.962Z,4.68
2017-12-25T18:55:08.873Z,4.68
2017-12-25T18:57:39.981Z,4.68
2017-12-25T19:00:10.332Z,4.69
2017-12-25T19:02:40.032Z,4.72
2017-12-25T19:05:09.485Z,4.71
2017-12-25T19:07:39.228Z,4.71
2017-12-25T19:10:08.473Z,4.73
2017-12-25T19:12:38.660Z,4.71
2017-12-25T19:15:08.395Z,4.73
2017-12-25T19:17:37.867Z,4.74
2017-12-25T19:20:08.041Z,4.74
2017-12-25T19:22:37.695Z,4.75
2017-12-25T19:27:59.865Z,4.74
2017-12-25T19:30:29.966Z,4.74
2017-12-25T19:33:00.218Z,4.74
2017-12-25T19:35:30.263Z,4.69
2017-12-25T19:38:00.000Z,4.71
2017-12-25T19:40:30.545Z,4.74
2017-12-25T19:43:00.433Z,4.72
2017-12-25T19:45:29.835Z,4.73
2017-12-25T19:47:59.693Z,4.78
2017-12-25T19:50:30.225Z,4.73
2017-12-25T19:52:59.774Z,4.72
2017-12-25T19:55:29.035Z,4.69
2017-12-25T19:57:58.650Z,4.68
2017-12-25T20:00:27.918Z,4.72
2017-12-25T20:02:57.262Z,4.71
2017-12-25T20:05:26.804Z,4.66
2017-12-25T20:07:56.269Z,4.65
2017-12-25T20:10:25.534Z,4.63
2017-12-25T20:12:55.078Z,4.64
2017-12-25T20:15:25.389Z,4.64
2017-12-25T20:17:55.015Z,4.68
2017-12-25T20:20:24.648Z,4.61
2017-12-25T20:22:54.723Z,4.61
2017-12-25T20:25:23.985Z,4.56
2017-12-25T20:27:53.618Z,4.52
2017-12-25T20:30:23.043Z,4.53
2017-12-25T20:32:52.363Z,4.48
2017-12-25T20:35:23.724Z,4.50
2017-12-25T20:37:55.849Z,4.48
2017-12-25T20:40:27.577Z,4.46
2017-12-25T20:42:57.157Z,4.45
2017-12-25T20:45:28.068Z,4.42
2017-12-25T20:47:57.620Z,4.44
2017-12-25T20:50:27.418Z,4.41
2017-12-25T20:52:57.242Z,4.43
2017-12-25T20:55:28.994Z,4.43
2017-12-25T20:58:00.480Z,4.38
2017-12-25T21:00:30.234Z,4.38
2017-12-25T21:03:03.179Z,4.34
2017-12-25T21:05:33.515Z,4.33
2017-12-25T21:08:06.908Z,4.33
2017-12-25T21:10:36.196Z,4.32
2017-12-25T21:13:06.227Z,4.30
2017-12-25T21:15:38.788Z,4.31
2017-12-25T21:18:09.311Z,4.27
2017-12-25T21:20:38.989Z,4.24
2017-12-25T21:23:08.673Z,4.21
2017-12-25T21:25:38.556Z,4.20
2017-12-25T21:28:08.218Z,4.20
2017-12-25T21:30:38.193Z,4.17
2017-12-25T21:33:08.653Z,4.20
2017-12-25T21:35:38.663Z,4.19
2017-12-25T21:38:10.661Z,4.17
2017-12-25T21:40:40.286Z,4.15
2017-12-25T21:43:09.849Z,4.09
2017-12-25T21:45:40.373Z,4.09
2017-12-25T21:48:10.139Z,4.14
2017-12-25T21:50:41.146Z,4.12
2017-12-25T21:53:10.391Z,4.08
2017-12-25T21:55:39.704Z,4.09
2017-12-25T21:58:09.603Z,4.09
2017-12-25T22:00:39.668Z,4.11
2017-12-25T22:03:09.823Z,4.11
2017-12-25T22:05:39.250Z,4.05
2017-12-25T22:08:10.455Z,4.03
2017-12-25T22:10:41.006Z,4.05
2017-12-25T22:13:11.173Z,4.04
2017-12-25T22:15:40.393Z,4.00
2017-12-25T22:18:09.944Z,4.00
2017-12-25T22:20:39.748Z,4.03
2017-12-25T22:23:09.367Z,4.01
2017-12-25T22:25:39.750Z,4.03
2017-12-25T22:28:09.385Z,4.00
2017-12-25T22:30:38.718Z,4.03
2017-12-25T22:33:08.280Z,4.01
2017-12-25T22:35:37.552Z,4.01
2017-12-25T22:38:07.386Z,4.02
2017-12-25T22:40:36.917Z,4.05
2017-12-25T22:43:20.603Z,4.00
2017-12-25T22:45:49.837Z,4.00
2017-12-25T22:48:19.330Z,4.02
2017-12-25T22:50:48.547Z,4.03
2017-12-25T22:53:17.777Z,4.01
2017-12-25T22:55:47.302Z,4.01
2017-12-25T22:58:16.663Z,3.98
2017-12-25T23:00:45.948Z,3.98
2017-12-25T23:03:16.047Z,3.99
2017-12-25T23:05:45.425Z,4.00
2017-12-25T23:10:38.843Z,3.97
2017-12-25T23:13:08.234Z,3.98
2017-12-25T23:15:37.459Z,3.96
2017-12-25T23:18:07.876Z,3.96
2017-12-25T23:20:37.086Z,3.99
2017-12-25T23:23:06.344Z,4.03
2017-12-25T23:25:35.863Z,4.01
2017-12-25T23:28:13.015Z,3.98
2017-12-25T23:30:42.240Z,4.02
2017-12-25T23:33:11.843Z,3.99
2017-12-25T23:35:41.033Z,3.98
2017-12-25T23:38:10.269Z,3.97
2017-12-25T23:40:39.848Z,4.01
2017-12-25T23:43:09.206Z,4.02
2017-12-25T23:45:38.472Z,4.00
2017-12-25T23:48:07.957Z,4.00
2017-12-25T23:50:37.189Z,4.01
2017-12-25T23:53:06.493Z,4.07
2017-12-25T23:55:36.092Z,4.07
2017-12-25T23:58:07.070Z,4.08
